sensor_id;sensor_type;location;lat;lon;timestamp;temperature;humidity
16158;DHT22;8184;60.256;18.694;2022-10-16T00:00:39;12.10;99.90
16158;DHT22;8184;60.256;18.694;2022-10-16T00:03:09;12.10;99.90
16158;DHT22;8184;60.256;18.694;2022-10-16T00:05:38;12.10;99.90
16158;DHT22;8184;60.256;18.694;2022-10-16T00:08:06;12.10;99.90
16158;DHT22;8184;60.256;18.694;2022-10-16T00:10:37;12.10;99.90
16158;DHT22;8184;60.256;18.694;2022-10-16T00:13:06;12.00;99.90
16158;DHT22;8184;60.256;18.694;2022-10-16T00:15:34;12.10;99.90
16158;DHT22;8184;60.256;18.694;2022-10-16T00:18:04;12.00;99.90
16158;DHT22;8184;60.256;18.694;2022-10-16T00:20:34;12.00;99.90
16158;DHT22;8184;60.256;18.694;2022-10-16T00:23:03;12.00;99.90
16158;DHT22;8184;60.256;18.694;2022-10-16T00:25:32;12.00;99.90
16158;DHT22;8184;60.256;18.694;2022-10-16T00:28:02;12.10;99.90
16158;DHT22;8184;60.256;18.694;2022-10-16T00:30:31;12.10;99.90
16158;DHT22;8184;60.256;18.694;2022-10-16T00:32:59;12.00;99.90
16158;DHT22;8184;60.256;18.694;2022-10-16T00:35:27;12.10;99.90
16158;DHT22;8184;60.256;18.694;2022-10-16T00:37:57;12.10;99.90
16158;DHT22;8184;60.256;18.694;2022-10-16T00:40:25;12.10;99.90
16158;DHT22;8184;60.256;18.694;2022-10-16T00:42:54;12.10;99.90
16158;DHT22;8184;60.256;18.694;2022-10-16T00:45:25;12.10;99.90
16158;DHT22;8184;60.256;18.694;2022-10-16T00:47:54;12.10;99.90
16158;DHT22;8184;60.256;18.694;2022-10-16T00:50:24;12.20;99.90
16158;DHT22;8184;60.256;18.694;2022-10-16T00:52:53;12.20;99.90
16158;DHT22;8184;60.256;18.694;2022-10-16T00:55:23;12.20;99.90
16158;DHT22;8184;60.256;18.694;2022-10-16T00:57:53;12.20;99.90
16158;DHT22;8184;60.256;18.694;2022-10-16T01:00:22;12.20;99.90
16158;DHT22;8184;60.256;18.694;2022-10-16T01:02:52;12.20;99.90
16158;DHT22;8184;60.256;18.694;2022-10-16T01:05:21;12.20;99.90
16158;DHT22;8184;60.256;18.694;2022-10-16T01:07:51;12.20;99.90
16158;DHT22;8184;60.256;18.694;2022-10-16T01:10:27;12.20;99.90
16158;DHT22;8184;60.256;18.694;2022-10-16T01:12:57;12.20;99.90
16158;DHT22;8184;60.256;18.694;2022-10-16T01:15:26;12.20;99.90
16158;DHT22;8184;60.256;18.694;2022-10-16T01:17:59;12.20;99.90
16158;DHT22;8184;60.256;18.694;2022-10-16T01:20:29;12.20;99.90
16158;DHT22;8184;60.256;18.694;2022-10-16T01:23:09;12.20;99.90
16158;DHT22;8184;60.256;18.694;2022-10-16T01:25:49;12.30;99.90
16158;DHT22;8184;60.256;18.694;2022-10-16T01:28:22;12.30;99.90
16158;DHT22;8184;60.256;18.694;2022-10-16T01:30:52;12.20;99.90
16158;DHT22;8184;60.256;18.694;2022-10-16T01:33:23;12.20;99.90
16158;DHT22;8184;60.256;18.694;2022-10-16T01:35:52;12.20;99.90
16158;DHT22;8184;60.256;18.694;2022-10-16T01:38:23;12.20;99.90
16158;DHT22;8184;60.256;18.694;2022-10-16T01:40:55;12.30;99.90
16158;DHT22;8184;60.256;18.694;2022-10-16T01:43:26;12.30;99.90
16158;DHT22;8184;60.256;18.694;2022-10-16T01:45:55;12.20;99.90
16158;DHT22;8184;60.256;18.694;2022-10-16T01:48:23;12.20;99.90
16158;DHT22;8184;60.256;18.694;2022-10-16T01:50:54;12.20;99.90
16158;DHT22;8184;60.256;18.694;2022-10-16T01:53:25;12.20;99.90
16158;DHT22;8184;60.256;18.694;2022-10-16T01:55:54;12.20;99.90
16158;DHT22;8184;60.256;18.694;2022-10-16T01:58:23;12.20;99.90
16158;DHT22;8184;60.256;18.694;2022-10-16T02:00:54;12.20;99.90
16158;DHT22;8184;60.256;18.694;2022-10-16T02:03:22;12.20;99.90
16158;DHT22;8184;60.256;18.694;2022-10-16T02:05:51;12.20;99.90
16158;DHT22;8184;60.256;18.694;2022-10-16T02:08:20;12.20;99.90
16158;DHT22;8184;60.256;18.694;2022-10-16T02:10:48;12.20;99.90
16158;DHT22;8184;60.256;18.694;2022-10-16T02:13:18;12.20;99.90
16158;DHT22;8184;60.256;18.694;2022-10-16T02:15:47;12.20;99.90
16158;DHT22;8184;60.256;18.694;2022-10-16T02:18:17;12.20;99.90
16158;DHT22;8184;60.256;18.694;2022-10-16T02:20:48;12.30;99.90
16158;DHT22;8184;60.256;18.694;2022-10-16T02:23:18;12.20;99.90
16158;DHT22;8184;60.256;18.694;2022-10-16T02:25:47;12.20;99.90
16158;DHT22;8184;60.256;18.694;2022-10-16T02:28:19;12.20;99.90
16158;DHT22;8184;60.256;18.694;2022-10-16T02:30:51;12.20;99.90
16158;DHT22;8184;60.256;18.694;2022-10-16T02:33:21;12.10;99.90
16158;DHT22;8184;60.256;18.694;2022-10-16T02:35:50;12.10;99.90
16158;DHT22;8184;60.256;18.694;2022-10-16T02:38:18;12.00;99.90
16158;DHT22;8184;60.256;18.694;2022-10-16T02:40:48;12.00;99.90
16158;DHT22;8184;60.256;18.694;2022-10-16T02:43:16;12.00;99.90
16158;DHT22;8184;60.256;18.694;2022-10-16T02:45:44;12.00;99.90
16158;DHT22;8184;60.256;18.694;2022-10-16T02:48:13;11.90;99.90
16158;DHT22;8184;60.256;18.694;2022-10-16T02:50:43;11.90;99.90
16158;DHT22;8184;60.256;18.694;2022-10-16T02:53:11;11.90;99.90
16158;DHT22;8184;60.256;18.694;2022-10-16T02:55:39;11.90;99.90
16158;DHT22;8184;60.256;18.694;2022-10-16T02:58:07;11.90;99.90
16158;DHT22;8184;60.256;18.694;2022-10-16T03:00:35;12.00;99.90
16158;DHT22;8184;60.256;18.694;2022-10-16T03:03:03;12.00;99.90
16158;DHT22;8184;60.256;18.694;2022-10-16T03:05:32;12.00;99.90
16158;DHT22;8184;60.256;18.694;2022-10-16T03:08:01;12.00;99.90
16158;DHT22;8184;60.256;18.694;2022-10-16T03:10:29;12.00;99.90
16158;DHT22;8184;60.256;18.694;2022-10-16T03:12:58;12.00;99.90
16158;DHT22;8184;60.256;18.694;2022-10-16T03:15:26;12.00;99.90
16158;DHT22;8184;60.256;18.694;2022-10-16T03:17:54;12.00;99.90
16158;DHT22;8184;60.256;18.694;2022-10-16T03:20:23;12.00;99.90
16158;DHT22;8184;60.256;18.694;2022-10-16T03:22:51;12.00;99.90
16158;DHT22;8184;60.256;18.694;2022-10-16T03:25:20;12.00;99.90
16158;DHT22;8184;60.256;18.694;2022-10-16T03:27:48;12.00;99.90
16158;DHT22;8184;60.256;18.694;2022-10-16T03:30:16;12.10;99.90
16158;DHT22;8184;60.256;18.694;2022-10-16T03:32:44;12.00;99.90
16158;DHT22;8184;60.256;18.694;2022-10-16T03:35:13;12.10;99.90
16158;DHT22;8184;60.256;18.694;2022-10-16T03:37:41;12.10;99.90
16158;DHT22;8184;60.256;18.694;2022-10-16T03:40:09;12.10;99.90
16158;DHT22;8184;60.256;18.694;2022-10-16T03:42:41;12.00;99.90
16158;DHT22;8184;60.256;18.694;2022-10-16T03:45:12;12.10;99.90
16158;DHT22;8184;60.256;18.694;2022-10-16T03:47:40;12.10;99.90
16158;DHT22;8184;60.256;18.694;2022-10-16T03:50:08;12.10;99.90
16158;DHT22;8184;60.256;18.694;2022-10-16T03:52:36;12.10;99.90
16158;DHT22;8184;60.256;18.694;2022-10-16T03:55:05;12.10;99.90
16158;DHT22;8184;60.256;18.694;2022-10-16T03:57:33;12.10;99.90
16158;DHT22;8184;60.256;18.694;2022-10-16T04:00:03;12.10;99.90
16158;DHT22;8184;60.256;18.694;2022-10-16T04:02:31;12.10;99.90
16158;DHT22;8184;60.256;18.694;2022-10-16T04:04:59;12.10;99.90
16158;DHT22;8184;60.256;18.694;2022-10-16T04:07:27;12.10;99.90
16158;DHT22;8184;60.256;18.694;2022-10-16T04:09:57;12.00;99.90
16158;DHT22;8184;60.256;18.694;2022-10-16T04:12:25;12.00;99.90
16158;DHT22;8184;60.256;18.694;2022-10-16T04:14:53;12.00;99.90
16158;DHT22;8184;60.256;18.694;2022-10-16T04:17:23;11.90;99.90
16158;DHT22;8184;60.256;18.694;2022-10-16T04:19:51;11.90;99.90
16158;DHT22;8184;60.256;18.694;2022-10-16T04:22:19;11.80;99.90
16158;DHT22;8184;60.256;18.694;2022-10-16T04:24:48;11.80;99.90
16158;DHT22;8184;60.256;18.694;2022-10-16T04:27:16;11.80;99.90
16158;DHT22;8184;60.256;18.694;2022-10-16T04:29:44;11.80;99.90
16158;DHT22;8184;60.256;18.694;2022-10-16T04:32:12;11.80;99.90
16158;DHT22;8184;60.256;18.694;2022-10-16T04:34:41;11.80;99.90
16158;DHT22;8184;60.256;18.694;2022-10-16T04:37:10;11.80;99.90
16158;DHT22;8184;60.256;18.694;2022-10-16T04:39:38;11.80;99.90
16158;DHT22;8184;60.256;18.694;2022-10-16T04:42:06;11.80;99.90
16158;DHT22;8184;60.256;18.694;2022-10-16T04:44:34;11.80;99.90
16158;DHT22;8184;60.256;18.694;2022-10-16T04:47:02;11.80;99.90
16158;DHT22;8184;60.256;18.694;2022-10-16T04:49:31;11.80;99.90
16158;DHT22;8184;60.256;18.694;2022-10-16T04:52:00;11.80;99.90
16158;DHT22;8184;60.256;18.694;2022-10-16T04:54:28;11.80;99.90
16158;DHT22;8184;60.256;18.694;2022-10-16T04:56:57;11.80;99.90
16158;DHT22;8184;60.256;18.694;2022-10-16T04:59:25;11.80;99.90
16158;DHT22;8184;60.256;18.694;2022-10-16T05:01:53;11.80;99.90
16158;DHT22;8184;60.256;18.694;2022-10-16T05:04:21;11.80;99.90
16158;DHT22;8184;60.256;18.694;2022-10-16T05:06:49;11.80;99.90
16158;DHT22;8184;60.256;18.694;2022-10-16T05:09:20;11.80;99.90
16158;DHT22;8184;60.256;18.694;2022-10-16T05:11:48;11.80;99.90
16158;DHT22;8184;60.256;18.694;2022-10-16T05:14:16;11.70;99.90
16158;DHT22;8184;60.256;18.694;2022-10-16T05:16:44;11.70;99.90
16158;DHT22;8184;60.256;18.694;2022-10-16T05:19:14;11.70;99.90
16158;DHT22;8184;60.256;18.694;2022-10-16T05:21:57;11.70;99.90
16158;DHT22;8184;60.256;18.694;2022-10-16T05:24:27;11.70;99.90
16158;DHT22;8184;60.256;18.694;2022-10-16T05:26:58;11.70;99.90
16158;DHT22;8184;60.256;18.694;2022-10-16T05:29:26;11.70;99.90
16158;DHT22;8184;60.256;18.694;2022-10-16T05:31:54;11.70;99.90
16158;DHT22;8184;60.256;18.694;2022-10-16T05:34:22;11.60;99.90
16158;DHT22;8184;60.256;18.694;2022-10-16T05:36:51;11.70;99.90
16158;DHT22;8184;60.256;18.694;2022-10-16T05:39:19;11.70;99.90
16158;DHT22;8184;60.256;18.694;2022-10-16T05:41:49;11.70;99.90
16158;DHT22;8184;60.256;18.694;2022-10-16T05:44:17;11.70;99.90
16158;DHT22;8184;60.256;18.694;2022-10-16T05:46:45;11.70;99.90
16158;DHT22;8184;60.256;18.694;2022-10-16T05:49:14;11.70;99.90
16158;DHT22;8184;60.256;18.694;2022-10-16T05:51:42;11.70;99.90
16158;DHT22;8184;60.256;18.694;2022-10-16T05:54:10;11.60;99.90
16158;DHT22;8184;60.256;18.694;2022-10-16T05:56:41;11.60;99.90
16158;DHT22;8184;60.256;18.694;2022-10-16T05:59:10;11.60;99.90
16158;DHT22;8184;60.256;18.694;2022-10-16T06:01:38;11.60;99.90
16158;DHT22;8184;60.256;18.694;2022-10-16T06:04:07;11.60;99.90
16158;DHT22;8184;60.256;18.694;2022-10-16T06:06:40;11.60;99.90
16158;DHT22;8184;60.256;18.694;2022-10-16T06:09:08;11.60;99.90
16158;DHT22;8184;60.256;18.694;2022-10-16T06:11:37;11.70;99.90
16158;DHT22;8184;60.256;18.694;2022-10-16T06:14:05;11.70;99.90
16158;DHT22;8184;60.256;18.694;2022-10-16T06:16:35;11.60;99.90
16158;DHT22;8184;60.256;18.694;2022-10-16T06:19:04;11.70;99.90
16158;DHT22;8184;60.256;18.694;2022-10-16T06:21:33;11.70;99.90
16158;DHT22;8184;60.256;18.694;2022-10-16T06:24:01;11.80;99.90
16158;DHT22;8184;60.256;18.694;2022-10-16T06:26:30;11.70;99.90
16158;DHT22;8184;60.256;18.694;2022-10-16T06:28:58;11.70;99.90
16158;DHT22;8184;60.256;18.694;2022-10-16T06:31:27;11.80;99.90
16158;DHT22;8184;60.256;18.694;2022-10-16T06:33:59;11.80;99.90
16158;DHT22;8184;60.256;18.694;2022-10-16T06:36:27;11.80;99.90
16158;DHT22;8184;60.256;18.694;2022-10-16T06:38:55;11.80;99.90
16158;DHT22;8184;60.256;18.694;2022-10-16T06:41:24;11.90;99.90
16158;DHT22;8184;60.256;18.694;2022-10-16T06:43:52;11.80;99.90
16158;DHT22;8184;60.256;18.694;2022-10-16T06:46:21;11.90;99.90
16158;DHT22;8184;60.256;18.694;2022-10-16T06:48:49;11.90;99.90
16158;DHT22;8184;60.256;18.694;2022-10-16T06:51:19;11.90;99.90
16158;DHT22;8184;60.256;18.694;2022-10-16T06:53:48;11.80;99.90
16158;DHT22;8184;60.256;18.694;2022-10-16T06:56:32;11.80;99.90
16158;DHT22;8184;60.256;18.694;2022-10-16T06:59:01;11.90;99.90
16158;DHT22;8184;60.256;18.694;2022-10-16T07:01:29;11.90;99.90
16158;DHT22;8184;60.256;18.694;2022-10-16T07:03:57;11.90;99.90
16158;DHT22;8184;60.256;18.694;2022-10-16T07:06:30;11.90;99.90
16158;DHT22;8184;60.256;18.694;2022-10-16T07:09:02;11.90;99.90
16158;DHT22;8184;60.256;18.694;2022-10-16T07:11:30;11.90;99.90
16158;DHT22;8184;60.256;18.694;2022-10-16T07:13:58;11.90;99.90
16158;DHT22;8184;60.256;18.694;2022-10-16T07:16:27;12.00;99.90
16158;DHT22;8184;60.256;18.694;2022-10-16T07:18:55;12.00;99.90
16158;DHT22;8184;60.256;18.694;2022-10-16T07:21:29;12.00;99.90
16158;DHT22;8184;60.256;18.694;2022-10-16T07:23:58;12.00;99.90
16158;DHT22;8184;60.256;18.694;2022-10-16T07:26:26;12.00;99.90
16158;DHT22;8184;60.256;18.694;2022-10-16T07:28:55;12.10;99.90
16158;DHT22;8184;60.256;18.694;2022-10-16T07:31:23;12.10;99.90
16158;DHT22;8184;60.256;18.694;2022-10-16T07:33:54;12.20;99.90
16158;DHT22;8184;60.256;18.694;2022-10-16T07:36:22;12.20;99.90
16158;DHT22;8184;60.256;18.694;2022-10-16T07:38:53;12.10;99.90
16158;DHT22;8184;60.256;18.694;2022-10-16T07:41:26;12.20;99.90
16158;DHT22;8184;60.256;18.694;2022-10-16T07:43:55;12.20;99.90
16158;DHT22;8184;60.256;18.694;2022-10-16T07:46:27;12.30;99.90
16158;DHT22;8184;60.256;18.694;2022-10-16T07:48:55;12.30;99.90
16158;DHT22;8184;60.256;18.694;2022-10-16T07:51:24;12.40;99.90
16158;DHT22;8184;60.256;18.694;2022-10-16T07:53:54;12.30;99.90
16158;DHT22;8184;60.256;18.694;2022-10-16T07:56:25;12.40;99.90
16158;DHT22;8184;60.256;18.694;2022-10-16T07:58:53;12.40;99.90
16158;DHT22;8184;60.256;18.694;2022-10-16T08:01:21;12.50;99.90
16158;DHT22;8184;60.256;18.694;2022-10-16T08:03:50;12.50;99.90
16158;DHT22;8184;60.256;18.694;2022-10-16T08:06:19;12.60;99.90
16158;DHT22;8184;60.256;18.694;2022-10-16T08:08:55;12.60;99.90
16158;DHT22;8184;60.256;18.694;2022-10-16T08:11:23;12.50;99.90
16158;DHT22;8184;60.256;18.694;2022-10-16T08:13:51;12.40;99.90
16158;DHT22;8184;60.256;18.694;2022-10-16T08:16:24;12.40;99.90
16158;DHT22;8184;60.256;18.694;2022-10-16T08:18:53;12.50;99.90
16158;DHT22;8184;60.256;18.694;2022-10-16T08:21:21;12.50;99.90
16158;DHT22;8184;60.256;18.694;2022-10-16T08:23:50;12.50;99.90
16158;DHT22;8184;60.256;18.694;2022-10-16T08:26:26;12.60;99.90
16158;DHT22;8184;60.256;18.694;2022-10-16T08:28:57;12.60;99.90
16158;DHT22;8184;60.256;18.694;2022-10-16T08:31:25;12.50;99.90
16158;DHT22;8184;60.256;18.694;2022-10-16T08:33:54;12.70;99.90
16158;DHT22;8184;60.256;18.694;2022-10-16T08:36:22;12.90;99.90
16158;DHT22;8184;60.256;18.694;2022-10-16T08:38:50;13.00;99.90
16158;DHT22;8184;60.256;18.694;2022-10-16T08:44:24;13.00;99.90
16158;DHT22;8184;60.256;18.694;2022-10-16T08:46:56;13.20;99.90
16158;DHT22;8184;60.256;18.694;2022-10-16T08:49:27;13.20;99.90
16158;DHT22;8184;60.256;18.694;2022-10-16T08:51:57;13.10;99.90
16158;DHT22;8184;60.256;18.694;2022-10-16T08:54:28;13.10;99.90
16158;DHT22;8184;60.256;18.694;2022-10-16T08:57:06;13.10;99.90
16158;DHT22;8184;60.256;18.694;2022-10-16T08:59:36;13.10;99.90
16158;DHT22;8184;60.256;18.694;2022-10-16T09:02:11;13.10;99.90
16158;DHT22;8184;60.256;18.694;2022-10-16T09:04:49;13.10;99.90
16158;DHT22;8184;60.256;18.694;2022-10-16T09:07:24;13.10;99.90
16158;DHT22;8184;60.256;18.694;2022-10-16T09:09:59;13.20;99.90
16158;DHT22;8184;60.256;18.694;2022-10-16T09:12:31;13.30;99.90
16158;DHT22;8184;60.256;18.694;2022-10-16T09:15:11;13.40;99.90
16158;DHT22;8184;60.256;18.694;2022-10-16T09:17:44;13.40;99.90
16158;DHT22;8184;60.256;18.694;2022-10-16T09:20:19;13.40;99.90
16158;DHT22;8184;60.256;18.694;2022-10-16T09:22:48;13.40;99.90
16158;DHT22;8184;60.256;18.694;2022-10-16T09:25:16;13.50;99.90
16158;DHT22;8184;60.256;18.694;2022-10-16T09:27:45;13.40;99.90
16158;DHT22;8184;60.256;18.694;2022-10-16T09:30:17;13.40;99.90
16158;DHT22;8184;60.256;18.694;2022-10-16T09:32:47;13.40;99.90
16158;DHT22;8184;60.256;18.694;2022-10-16T09:35:16;13.50;99.90
16158;DHT22;8184;60.256;18.694;2022-10-16T09:37:45;13.50;99.90
16158;DHT22;8184;60.256;18.694;2022-10-16T09:40:23;13.60;99.90
16158;DHT22;8184;60.256;18.694;2022-10-16T09:42:53;13.60;99.90
16158;DHT22;8184;60.256;18.694;2022-10-16T09:45:25;13.60;99.90
16158;DHT22;8184;60.256;18.694;2022-10-16T09:47:53;13.60;99.90
16158;DHT22;8184;60.256;18.694;2022-10-16T09:50:24;13.60;99.90
16158;DHT22;8184;60.256;18.694;2022-10-16T09:53:05;13.60;99.90
16158;DHT22;8184;60.256;18.694;2022-10-16T09:55:34;13.60;99.90
16158;DHT22;8184;60.256;18.694;2022-10-16T09:58:02;13.70;99.90
16158;DHT22;8184;60.256;18.694;2022-10-16T10:00:31;13.70;99.90
16158;DHT22;8184;60.256;18.694;2022-10-16T10:03:00;13.70;99.90
16158;DHT22;8184;60.256;18.694;2022-10-16T10:05:28;13.60;99.90
16158;DHT22;8184;60.256;18.694;2022-10-16T10:07:57;13.60;99.90
16158;DHT22;8184;60.256;18.694;2022-10-16T10:10:26;13.60;99.90
16158;DHT22;8184;60.256;18.694;2022-10-16T10:12:57;13.60;99.90
16158;DHT22;8184;60.256;18.694;2022-10-16T10:15:25;13.70;99.90
16158;DHT22;8184;60.256;18.694;2022-10-16T10:17:57;13.60;99.90
16158;DHT22;8184;60.256;18.694;2022-10-16T10:20:26;13.50;99.90
16158;DHT22;8184;60.256;18.694;2022-10-16T10:22:55;13.50;99.90
16158;DHT22;8184;60.256;18.694;2022-10-16T10:28:21;13.50;99.90
16158;DHT22;8184;60.256;18.694;2022-10-16T10:30:55;13.30;99.90
16158;DHT22;8184;60.256;18.694;2022-10-16T10:33:28;13.20;99.90
16158;DHT22;8184;60.256;18.694;2022-10-16T10:36:02;13.20;99.90
16158;DHT22;8184;60.256;18.694;2022-10-16T10:38:36;13.30;99.90
16158;DHT22;8184;60.256;18.694;2022-10-16T10:41:09;13.10;99.90
16158;DHT22;8184;60.256;18.694;2022-10-16T10:43:43;13.20;99.90
16158;DHT22;8184;60.256;18.694;2022-10-16T10:46:16;13.20;99.90
16158;DHT22;8184;60.256;18.694;2022-10-16T10:48:58;13.30;99.90
16158;DHT22;8184;60.256;18.694;2022-10-16T10:51:31;13.40;99.90
16158;DHT22;8184;60.256;18.694;2022-10-16T10:54:06;13.50;99.90
16158;DHT22;8184;60.256;18.694;2022-10-16T10:56:41;13.50;99.90
16158;DHT22;8184;60.256;18.694;2022-10-16T10:59:24;13.60;99.90
16158;DHT22;8184;60.256;18.694;2022-10-16T11:02:01;13.90;99.90
16158;DHT22;8184;60.256;18.694;2022-10-16T11:04:37;14.20;99.90
16158;DHT22;8184;60.256;18.694;2022-10-16T11:07:10;14.30;99.90
16158;DHT22;8184;60.256;18.694;2022-10-16T11:09:43;14.30;99.90
16158;DHT22;8184;60.256;18.694;2022-10-16T11:12:14;14.30;99.90
16158;DHT22;8184;60.256;18.694;2022-10-16T11:14:46;14.20;99.90
16158;DHT22;8184;60.256;18.694;2022-10-16T11:17:17;14.30;99.90
16158;DHT22;8184;60.256;18.694;2022-10-16T11:19:49;14.20;99.90
16158;DHT22;8184;60.256;18.694;2022-10-16T11:22:21;14.20;99.90
16158;DHT22;8184;60.256;18.694;2022-10-16T11:24:51;14.40;99.90
16158;DHT22;8184;60.256;18.694;2022-10-16T11:27:22;14.60;99.90
16158;DHT22;8184;60.256;18.694;2022-10-16T11:29:53;14.60;99.90
16158;DHT22;8184;60.256;18.694;2022-10-16T11:32:25;14.40;99.90
16158;DHT22;8184;60.256;18.694;2022-10-16T11:34:59;14.10;99.90
16158;DHT22;8184;60.256;18.694;2022-10-16T11:37:29;14.00;99.90
16158;DHT22;8184;60.256;18.694;2022-10-16T11:39:58;13.90;99.90
16158;DHT22;8184;60.256;18.694;2022-10-16T11:42:30;13.80;99.90
16158;DHT22;8184;60.256;18.694;2022-10-16T11:45:02;13.80;99.90
16158;DHT22;8184;60.256;18.694;2022-10-16T11:47:33;13.90;99.90
16158;DHT22;8184;60.256;18.694;2022-10-16T11:50:25;13.80;99.90
16158;DHT22;8184;60.256;18.694;2022-10-16T11:52:55;13.80;99.90
16158;DHT22;8184;60.256;18.694;2022-10-16T11:55:30;13.80;99.90
16158;DHT22;8184;60.256;18.694;2022-10-16T11:58:00;13.90;99.90
16158;DHT22;8184;60.256;18.694;2022-10-16T12:00:31;13.80;99.90
16158;DHT22;8184;60.256;18.694;2022-10-16T12:03:03;13.70;99.90
16158;DHT22;8184;60.256;18.694;2022-10-16T12:05:41;13.80;99.90
16158;DHT22;8184;60.256;18.694;2022-10-16T12:08:14;13.90;99.90
16158;DHT22;8184;60.256;18.694;2022-10-16T12:10:46;13.80;99.90
16158;DHT22;8184;60.256;18.694;2022-10-16T12:13:28;13.90;99.90
16158;DHT22;8184;60.256;18.694;2022-10-16T12:16:03;13.80;99.90
16158;DHT22;8184;60.256;18.694;2022-10-16T12:18:32;13.80;99.90
16158;DHT22;8184;60.256;18.694;2022-10-16T12:21:01;14.00;99.90
16158;DHT22;8184;60.256;18.694;2022-10-16T12:23:33;14.00;99.90
16158;DHT22;8184;60.256;18.694;2022-10-16T12:26:04;13.80;99.90
16158;DHT22;8184;60.256;18.694;2022-10-16T12:28:33;13.80;99.90
16158;DHT22;8184;60.256;18.694;2022-10-16T12:31:02;13.80;99.90
16158;DHT22;8184;60.256;18.694;2022-10-16T12:33:32;13.70;99.90
16158;DHT22;8184;60.256;18.694;2022-10-16T12:36:03;13.70;99.90
16158;DHT22;8184;60.256;18.694;2022-10-16T12:38:35;13.70;99.90
16158;DHT22;8184;60.256;18.694;2022-10-16T12:41:05;13.60;99.90
16158;DHT22;8184;60.256;18.694;2022-10-16T12:43:36;13.60;99.90
16158;DHT22;8184;60.256;18.694;2022-10-16T12:46:06;13.60;99.90
16158;DHT22;8184;60.256;18.694;2022-10-16T12:48:48;13.60;99.90
16158;DHT22;8184;60.256;18.694;2022-10-16T12:51:35;13.60;99.90
16158;DHT22;8184;60.256;18.694;2022-10-16T12:54:04;13.50;99.90
16158;DHT22;8184;60.256;18.694;2022-10-16T12:56:36;13.60;99.90
16158;DHT22;8184;60.256;18.694;2022-10-16T12:59:09;13.50;99.90
16158;DHT22;8184;60.256;18.694;2022-10-16T13:01:49;13.50;99.90
16158;DHT22;8184;60.256;18.694;2022-10-16T13:04:24;13.60;99.90
16158;DHT22;8184;60.256;18.694;2022-10-16T13:06:58;13.60;99.90
16158;DHT22;8184;60.256;18.694;2022-10-16T13:09:37;13.70;99.90
16158;DHT22;8184;60.256;18.694;2022-10-16T13:12:15;13.80;99.90
16158;DHT22;8184;60.256;18.694;2022-10-16T13:14:49;13.80;99.90
16158;DHT22;8184;60.256;18.694;2022-10-16T13:17:22;13.70;99.90
16158;DHT22;8184;60.256;18.694;2022-10-16T13:19:58;13.50;99.90
16158;DHT22;8184;60.256;18.694;2022-10-16T13:22:33;13.40;99.90
16158;DHT22;8184;60.256;18.694;2022-10-16T13:25:09;13.30;99.90
16158;DHT22;8184;60.256;18.694;2022-10-16T13:27:43;13.20;99.90
16158;DHT22;8184;60.256;18.694;2022-10-16T13:30:15;13.10;99.90
16158;DHT22;8184;60.256;18.694;2022-10-16T13:32:45;13.10;99.90
16158;DHT22;8184;60.256;18.694;2022-10-16T13:35:20;13.20;99.90
16158;DHT22;8184;60.256;18.694;2022-10-16T13:37:50;13.20;99.90
16158;DHT22;8184;60.256;18.694;2022-10-16T13:40:19;13.10;99.90
16158;DHT22;8184;60.256;18.694;2022-10-16T13:42:48;13.10;99.90
16158;DHT22;8184;60.256;18.694;2022-10-16T13:45:19;13.10;99.90
16158;DHT22;8184;60.256;18.694;2022-10-16T13:47:48;13.00;99.90
16158;DHT22;8184;60.256;18.694;2022-10-16T13:50:17;13.00;99.90
16158;DHT22;8184;60.256;18.694;2022-10-16T13:52:45;13.00;99.90
16158;DHT22;8184;60.256;18.694;2022-10-16T13:55:15;13.00;99.90
16158;DHT22;8184;60.256;18.694;2022-10-16T13:57:44;13.00;99.90
16158;DHT22;8184;60.256;18.694;2022-10-16T14:00:19;12.90;99.90
16158;DHT22;8184;60.256;18.694;2022-10-16T14:02:50;13.00;99.90
16158;DHT22;8184;60.256;18.694;2022-10-16T14:05:20;12.90;99.90
16158;DHT22;8184;60.256;18.694;2022-10-16T14:07:48;12.90;99.90
16158;DHT22;8184;60.256;18.694;2022-10-16T14:10:22;13.00;99.90
16158;DHT22;8184;60.256;18.694;2022-10-16T14:12:55;12.90;99.90
16158;DHT22;8184;60.256;18.694;2022-10-16T14:15:26;12.80;99.90
16158;DHT22;8184;60.256;18.694;2022-10-16T14:17:54;12.60;99.90
16158;DHT22;8184;60.256;18.694;2022-10-16T14:20:24;12.50;99.90
16158;DHT22;8184;60.256;18.694;2022-10-16T14:22:59;12.30;99.90
16158;DHT22;8184;60.256;18.694;2022-10-16T14:25:30;12.20;99.90
16158;DHT22;8184;60.256;18.694;2022-10-16T14:27:59;12.10;99.90
16158;DHT22;8184;60.256;18.694;2022-10-16T14:30:33;12.00;99.90
16158;DHT22;8184;60.256;18.694;2022-10-16T14:33:02;11.90;99.90
16158;DHT22;8184;60.256;18.694;2022-10-16T14:35:31;11.90;99.90
16158;DHT22;8184;60.256;18.694;2022-10-16T14:38:01;11.90;99.90
16158;DHT22;8184;60.256;18.694;2022-10-16T14:40:31;11.80;99.90
16158;DHT22;8184;60.256;18.694;2022-10-16T14:43:00;11.80;99.90
16158;DHT22;8184;60.256;18.694;2022-10-16T14:45:29;11.70;99.90
16158;DHT22;8184;60.256;18.694;2022-10-16T14:47:58;11.70;99.90
16158;DHT22;8184;60.256;18.694;2022-10-16T14:50:26;11.70;99.90
16158;DHT22;8184;60.256;18.694;2022-10-16T14:52:55;11.60;99.90
16158;DHT22;8184;60.256;18.694;2022-10-16T14:55:23;11.60;99.90
16158;DHT22;8184;60.256;18.694;2022-10-16T14:57:53;11.50;99.90
16158;DHT22;8184;60.256;18.694;2022-10-16T15:00:26;11.40;99.90
16158;DHT22;8184;60.256;18.694;2022-10-16T15:02:54;11.40;99.90
16158;DHT22;8184;60.256;18.694;2022-10-16T15:05:23;11.30;99.90
16158;DHT22;8184;60.256;18.694;2022-10-16T15:07:52;11.30;99.90
16158;DHT22;8184;60.256;18.694;2022-10-16T15:10:22;11.30;99.90
16158;DHT22;8184;60.256;18.694;2022-10-16T15:12:50;11.20;99.90
16158;DHT22;8184;60.256;18.694;2022-10-16T15:15:25;11.20;99.90
16158;DHT22;8184;60.256;18.694;2022-10-16T15:17:55;11.10;99.90
16158;DHT22;8184;60.256;18.694;2022-10-16T15:20:24;11.10;99.90
16158;DHT22;8184;60.256;18.694;2022-10-16T15:22:52;11.00;99.90
16158;DHT22;8184;60.256;18.694;2022-10-16T15:25:35;11.00;99.90
16158;DHT22;8184;60.256;18.694;2022-10-16T15:28:04;10.90;99.90
16158;DHT22;8184;60.256;18.694;2022-10-16T15:30:35;10.90;99.90
16158;DHT22;8184;60.256;18.694;2022-10-16T15:33:09;10.80;99.90
16158;DHT22;8184;60.256;18.694;2022-10-16T15:35:39;10.80;99.90
16158;DHT22;8184;60.256;18.694;2022-10-16T15:38:08;10.80;99.90
16158;DHT22;8184;60.256;18.694;2022-10-16T15:40:37;10.60;99.90
16158;DHT22;8184;60.256;18.694;2022-10-16T15:43:05;10.60;99.90
16158;DHT22;8184;60.256;18.694;2022-10-16T15:45:35;10.60;99.90
16158;DHT22;8184;60.256;18.694;2022-10-16T15:48:03;10.60;99.90
16158;DHT22;8184;60.256;18.694;2022-10-16T15:50:31;10.70;99.90
16158;DHT22;8184;60.256;18.694;2022-10-16T15:52:59;10.50;99.90
16158;DHT22;8184;60.256;18.694;2022-10-16T15:55:27;10.70;99.90